Terminal Aerodrome Forecast
Issued by NWS

Home | Current Version | Previous Version | Text Only | Print | Product List | Glossary On
Versions: 1 2 3 4 5 6 7 8 9 10 11 12 13 14 15 16
000
FTUS46 KMTR 260540
TAFSNS
TAF
KSNS 260540Z 2606/2706 30010KT P6SM OVC015
     FM261000 24005KT P6SM OVC012
     FM261500 12006KT P6SM SCT015 OVC025
     FM261900 29007KT P6SM FEW025
     FM262200 28013KT P6SM FEW030
     FM270200 27009KT P6SM BKN020=

USA.gov is the U.S. government's official web portal to all federal, state and local government web resources and services.